Time;durP1;ratioP1;P1;durP2;ratioP2;P2;SDS_P1;SDS_P2;PMS_P1;PMS_P2;Temp;Humidity;BMP_temperature;BMP_pressure;BME280_temperature;BME280_humidity;BME280_pressure;Samples;Min_cycle;Max_cycle;Signal;HPM_P1;HPM_P2
2023/04/15 00:01:10;;;;;;;;;;;;;;;7.30;88.88;98891.03;4468810;32;34019;-75
2023/04/15 00:03:38;;;;;;;;;;;;;;;7.79;87.17;98887.09;4469244;32;34751;-75
2023/04/15 00:06:06;;;;;;;;;;;;;;;7.68;87.45;98884.94;4469037;32;33869;-75
2023/04/15 00:08:33;;;;;;;;;;;;;;;7.84;87.05;98891.62;4468943;32;33890;-75
2023/04/15 00:11:04;;;;;;;;;;;;;;;7.80;86.38;98884.59;4468844;32;34570;-75
2023/04/15 00:13:34;;;;;;;;;;;;;;;8.14;86.03;98885.06;4458520;32;34845;-75
2023/04/15 00:16:02;;;;;;;;;;;;;;;7.84;86.50;98895.87;4469162;32;34318;-75
2023/04/15 00:18:30;;;;;;;;;;;;;;;7.81;86.51;98895.78;4468705;32;34041;-75
2023/04/15 00:20:58;;;;;;;;;;;;;;;7.95;86.45;98889.47;4468301;32;34177;-75
2023/04/15 00:23:25;;;;;;;;;;;;;;;8.03;85.74;98902.66;4468781;32;33904;-75
2023/04/15 00:25:53;;;;;;;;;;;;;;;8.07;85.50;98907.12;4468566;32;34047;-75
2023/04/15 00:28:20;;;;;;;;;;;;;;;7.92;85.75;98898.75;4468653;32;34110;-75
2023/04/15 00:30:47;;;;;;;;;;;;;;;8.10;85.77;98899.53;4468914;32;34296;-75
2023/04/15 00:33:18;;;;;;;;;;;;;;;7.97;86.35;98892.97;4468585;32;33885;-75
2023/04/15 00:35:46;;;;;;;;;;;;;;;7.73;87.57;98889.44;4466701;32;33005;-75
2023/04/15 00:38:13;;;;;;;;;;;;;;;8.01;86.56;98874.22;4465001;32;34853;-75
2023/04/15 00:40:41;;;;;;;;;;;;;;;7.97;86.55;98874.06;4462534;32;34432;-75
2023/04/15 00:43:08;;;;;;;;;;;;;;;8.12;85.63;98876.38;4462358;32;34870;-75
2023/04/15 00:45:36;;;;;;;;;;;;;;;8.30;85.32;98886.53;4470856;32;32881;-75
2023/04/15 00:48:03;;;;;;;;;;;;;;;8.32;85.26;98880.59;4470090;32;34607;-75
2023/04/15 00:50:30;;;;;;;;;;;;;;;8.29;85.38;98880.50;4456520;32;34210;-75
2023/04/15 00:52:58;;;;;;;;;;;;;;;8.26;84.63;98885.53;4470315;32;34533;-75
2023/04/15 00:55:25;;;;;;;;;;;;;;;8.49;83.50;98878.69;4470388;32;33291;-75
2023/04/15 00:57:52;;;;;;;;;;;;;;;8.44;84.22;98881.13;4470704;32;34609;-75
2023/04/15 01:00:20;;;;;;;;;;;;;;;8.28;85.13;98889.03;4470744;32;33561;-75
2023/04/15 01:02:47;;;;;;;;;;;;;;;8.50;84.01;98871.84;4470404;32;34931;-75
2023/04/15 01:05:16;;;;;;;;;;;;;;;8.72;83.26;98882.16;4467841;32;33216;-75
2023/04/15 01:07:44;;;;;;;;;;;;;;;8.38;84.12;98879.97;4457945;32;34029;-75
2023/04/15 01:10:11;;;;;;;;;;;;;;;8.52;83.67;98883.09;4477397;32;35041;-75
2023/04/15 01:12:39;;;;;;;;;;;;;;;8.64;83.84;98878.41;4473848;32;34695;-75
2023/04/15 01:15:07;;;;;;;;;;;;;;;8.67;82.94;98873.34;4469250;32;33644;-75
2023/04/15 01:17:34;;;;;;;;;;;;;;;8.79;82.55;98873.81;4473890;32;34031;-75
2023/04/15 01:20:01;;;;;;;;;;;;;;;8.81;82.46;98872.16;4479690;32;34150;-75
2023/04/15 01:22:30;;;;;;;;;;;;;;;8.78;83.00;98874.63;4479855;32;33942;-75
2023/04/15 01:25:07;;;;;;;;;;;;;;;8.75;82.47;98876.22;4473141;32;32696;-75
2023/04/15 01:27:35;;;;;;;;;;;;;;;8.78;82.98;98878.91;4461767;32;34253;-75
2023/04/15 01:30:04;;;;;;;;;;;;;;;9.05;81.62;98873.87;4465374;32;34975;-75
2023/04/15 01:32:31;;;;;;;;;;;;;;;8.91;81.83;98873.37;4479857;32;34100;-75
2023/04/15 01:35:18;;;;;;;;;;;;;;;8.89;82.53;98879.34;4472533;32;34983;-75
2023/04/15 01:37:47;;;;;;;;;;;;;;;8.79;82.21;98876.41;4481095;32;34373;-75
2023/04/15 01:40:16;;;;;;;;;;;;;;;9.01;81.30;98879.75;4477961;32;34700;-75
2023/04/15 01:42:45;;;;;;;;;;;;;;;9.32;80.27;98879.13;4474769;32;34919;-75
2023/04/15 01:45:16;;;;;;;;;;;;;;;9.27;80.14;98885.84;4459432;32;34428;-75
2023/04/15 01:47:45;;;;;;;;;;;;;;;9.48;79.67;98887.41;4479478;32;35478;-75
2023/04/15 01:50:14;;;;;;;;;;;;;;;9.46;79.43;98884.78;4477729;32;34860;-75
2023/04/15 01:52:42;;;;;;;;;;;;;;;9.20;80.22;98889.06;4473978;32;35609;-75
2023/04/15 01:55:11;;;;;;;;;;;;;;;9.42;79.48;98893.25;4483023;32;34704;-76
2023/04/15 01:57:39;;;;;;;;;;;;;;;9.10;81.04;98890.44;4474222;32;34741;-75
2023/04/15 02:00:08;;;;;;;;;;;;;;;8.99;81.29;98886.59;4481471;32;34755;-76
2023/04/15 02:02:40;;;;;;;;;;;;;;;8.92;81.52;98887.16;4461622;32;35454;-75
2023/04/15 02:05:09;;;;;;;;;;;;;;;8.91;82.29;98896.63;4482902;32;33997;-75
2023/04/15 02:07:38;;;;;;;;;;;;;;;9.27;81.00;98892.72;4473880;32;34209;-75
2023/04/15 02:10:06;;;;;;;;;;;;;;;9.48;80.24;98892.59;4478877;32;34748;-75
2023/04/15 02:12:35;;;;;;;;;;;;;;;9.07;81.34;98894.59;4471962;32;35054;-75
2023/04/15 02:15:04;;;;;;;;;;;;;;;9.16;81.20;98890.66;4482942;32;33976;-75
2023/04/15 02:17:34;;;;;;;;;;;;;;;9.21;80.97;98894.28;4472977;32;34690;-75
2023/04/15 02:20:04;;;;;;;;;;;;;;;9.03;81.30;98888.44;4475086;32;35503;-76
2023/04/15 02:22:33;;;;;;;;;;;;;;;9.42;80.40;98893.25;4465538;32;34761;-75
2023/04/15 02:25:02;;;;;;;;;;;;;;;9.45;79.41;98891.66;4462499;32;35000;-75
2023/04/15 02:27:32;;;;;;;;;;;;;;;8.98;81.81;98889.97;4460651;32;33544;-75
2023/04/15 02:30:01;;;;;;;;;;;;;;;8.93;82.22;98888.94;4479134;32;35044;-75
2023/04/15 02:32:29;;;;;;;;;;;;;;;8.76;83.31;98889.19;4479230;32;35017;-75
2023/04/15 02:35:01;;;;;;;;;;;;;;;8.53;84.66;98885.75;4472675;32;34138;-75
2023/04/15 02:37:30;;;;;;;;;;;;;;;9.14;81.85;98889.72;4460013;32;35498;-75
2023/04/15 02:40:00;;;;;;;;;;;;;;;9.13;82.27;98898.28;4479395;32;34204;-75
2023/04/15 02:42:30;;;;;;;;;;;;;;;9.39;80.22;98898.34;4474221;32;34765;-75
2023/04/15 02:45:00;;;;;;;;;;;;;;;9.34;80.65;98900.75;4482800;32;34654;-75
2023/04/15 02:47:30;;;;;;;;;;;;;;;9.03;82.06;98906.53;4457733;32;34846;-75
2023/04/15 02:50:00;;;;;;;;;;;;;;;8.90;83.06;98891.41;4475831;32;35185;-76
2023/04/15 02:52:30;;;;;;;;;;;;;;;8.87;83.44;98906.81;4475953;32;35382;-75
2023/04/15 02:55:01;;;;;;;;;;;;;;;8.92;83.51;98897.50;4474429;32;33930;-76
2023/04/15 02:57:30;;;;;;;;;;;;;;;8.43;86.00;98889.66;4470152;32;34465;-75
2023/04/15 02:59:59;;;;;;;;;;;;;;;8.48;86.01;98891.53;4472164;32;34649;-76
2023/04/15 03:02:32;;;;;;;;;;;;;;;8.31;86.59;98894.34;4479053;32;34230;-75
2023/04/15 03:05:01;;;;;;;;;;;;;;;8.78;85.49;98881.50;4472445;32;33925;-75
2023/04/15 03:07:30;;;;;;;;;;;;;;;8.85;84.05;98889.53;4460061;32;35440;-76
2023/04/15 03:10:00;;;;;;;;;;;;;;;8.60;85.61;98889.44;4483183;32;34684;-75
2023/04/15 03:12:29;;;;;;;;;;;;;;;8.74;85.21;98885.66;4475803;32;35441;-75
2023/04/15 03:14:59;;;;;;;;;;;;;;;8.56;86.21;98885.00;4482211;32;34670;-75
2023/04/15 03:17:28;;;;;;;;;;;;;;;8.44;86.54;98886.28;4482306;32;33715;-75
2023/04/15 03:19:57;;;;;;;;;;;;;;;8.41;87.04;98888.72;4475604;32;34718;-75
2023/04/15 03:22:26;;;;;;;;;;;;;;;8.72;86.31;98892.47;4476048;32;35002;-75
2023/04/15 03:24:55;;;;;;;;;;;;;;;8.71;85.43;98890.75;4475557;32;34076;-75
2023/04/15 03:27:24;;;;;;;;;;;;;;;8.56;86.36;98887.56;4476450;32;34334;-76
2023/04/15 03:29:53;;;;;;;;;;;;;;;8.82;85.84;98884.25;4465771;32;34727;-76
2023/04/15 03:32:23;;;;;;;;;;;;;;;9.04;84.00;98882.47;4478085;32;33698;-75
2023/04/15 03:34:52;;;;;;;;;;;;;;;9.13;83.22;98890.53;4472760;32;34815;-75
2023/04/15 03:37:20;;;;;;;;;;;;;;;8.89;84.47;98890.53;4482282;32;34239;-75
2023/04/15 03:39:49;;;;;;;;;;;;;;;9.28;83.22;98889.31;4474576;32;35521;-75
2023/04/15 03:42:18;;;;;;;;;;;;;;;8.90;84.52;98883.66;4480739;32;34807;-76
2023/04/15 03:44:46;;;;;;;;;;;;;;;8.53;86.34;98882.28;4474044;32;34675;-75
2023/04/15 03:47:15;;;;;;;;;;;;;;;8.53;86.84;98882.28;4481839;32;35412;-75
2023/04/15 03:49:44;;;;;;;;;;;;;;;8.69;86.60;98887.19;4459764;32;34211;-75
2023/04/15 03:52:12;;;;;;;;;;;;;;;8.63;86.22;98881.81;4477601;32;35470;-75
2023/04/15 03:54:41;;;;;;;;;;;;;;;8.45;87.55;98885.44;4470654;32;33452;-76
2023/04/15 03:57:10;;;;;;;;;;;;;;;8.45;87.57;98882.88;4482202;32;35519;-76
2023/04/15 03:59:38;;;;;;;;;;;;;;;8.84;86.36;98872.25;4472869;32;34369;-76
2023/04/15 04:02:06;;;;;;;;;;;;;;;8.60;86.56;98882.56;4477817;32;34746;-75
2023/04/15 04:04:36;;;;;;;;;;;;;;;8.67;86.31;98878.50;4478876;32;33965;-76
2023/04/15 04:07:04;;;;;;;;;;;;;;;9.18;84.46;98878.66;4471701;32;34744;-75
2023/04/15 04:09:33;;;;;;;;;;;;;;;8.94;84.74;98877.78;4481455;32;34728;-75
2023/04/15 04:12:03;;;;;;;;;;;;;;;8.99;84.79;98874.53;4461315;32;35628;-76
2023/04/15 04:14:31;;;;;;;;;;;;;;;9.23;83.08;98877.12;4474983;32;34185;-76
2023/04/15 04:17:00;;;;;;;;;;;;;;;8.91;84.75;98883.72;4480754;32;34714;-76
2023/04/15 04:19:29;;;;;;;;;;;;;;;8.80;85.60;98885.03;4466911;32;35175;-76
2023/04/15 04:21:57;;;;;;;;;;;;;;;8.68;86.90;98882.88;4478292;32;34799;-75
2023/04/15 04:24:25;;;;;;;;;;;;;;;8.96;85.41;98882.19;4478206;32;33494;-75
2023/04/15 04:26:56;;;;;;;;;;;;;;;9.00;84.89;98888.31;4480994;32;34679;-75
2023/04/15 04:29:25;;;;;;;;;;;;;;;9.36;83.48;98891.34;4471558;32;33814;-76
2023/04/15 04:31:53;;;;;;;;;;;;;;;9.35;83.18;98888.69;4471741;32;35422;-76
2023/04/15 04:34:22;;;;;;;;;;;;;;;9.46;82.63;98889.94;4468439;32;33822;-75
2023/04/15 04:36:50;;;;;;;;;;;;;;;9.58;82.02;98895.56;4454390;32;34804;-75
2023/04/15 04:39:19;;;;;;;;;;;;;;;9.23;83.91;98892.62;4481515;32;34707;-76
2023/04/15 04:41:48;;;;;;;;;;;;;;;9.21;84.15;98898.56;4472316;32;34752;-75
2023/04/15 04:44:17;;;;;;;;;;;;;;;9.38;83.56;98897.44;4464677;32;34525;-76
2023/04/15 04:46:45;;;;;;;;;;;;;;;9.27;84.22;98892.72;4467684;32;35900;-75
2023/04/15 04:49:14;;;;;;;;;;;;;;;9.49;83.67;98895.22;4470721;32;34691;-75
2023/04/15 04:51:42;;;;;;;;;;;;;;;9.51;83.72;98884.97;4474017;32;34612;-75
2023/04/15 04:54:11;;;;;;;;;;;;;;;9.28;84.42;98889.31;4464978;32;33976;-76
2023/04/15 04:56:40;;;;;;;;;;;;;;;9.60;83.21;98893.00;4457292;32;35481;-75
2023/04/15 04:59:09;;;;;;;;;;;;;;;9.32;84.76;98886.03;4481024;32;34763;-75
2023/04/15 05:01:37;;;;;;;;;;;;;;;9.54;84.12;98890.22;4470172;32;34788;-75
2023/04/15 05:04:06;;;;;;;;;;;;;;;9.42;84.50;98893.25;4463127;32;34805;-75
2023/04/15 05:06:35;;;;;;;;;;;;;;;9.58;83.94;98890.38;4478351;32;34660;-75
2023/04/15 05:09:04;;;;;;;;;;;;;;;9.58;83.88;98894.66;4469620;32;34651;-76
2023/04/15 05:11:33;;;;;;;;;;;;;;;9.70;83.53;98896.81;4449986;32;36002;-75
2023/04/15 05:14:02;;;;;;;;;;;;;;;9.78;82.97;98895.34;4451046;32;33792;-76
2023/04/15 05:16:30;;;;;;;;;;;;;;;9.83;82.88;98893.78;4453097;32;34640;-76
2023/04/15 05:18:59;;;;;;;;;;;;;;;9.58;84.14;98894.66;4441524;32;35455;-76
2023/04/15 05:21:28;;;;;;;;;;;;;;;9.58;84.50;98890.38;4451073;32;33547;-76
2023/04/15 05:23:56;;;;;;;;;;;;;;;9.58;84.88;98895.56;4449560;32;34646;-76
2023/04/15 05:26:26;;;;;;;;;;;;;;;9.89;83.54;98896.59;4448892;32;34586;-76
2023/04/15 05:28:54;;;;;;;;;;;;;;;10.02;83.22;98901.34;4458537;32;35516;-75
2023/04/15 05:31:23;;;;;;;;;;;;;;;10.14;82.15;98898.25;4463686;32;35470;-76
2023/04/15 05:33:52;;;;;;;;;;;;;;;10.48;80.47;98901.03;4455705;32;33817;-76
2023/04/15 05:36:20;;;;;;;;;;;;;;;10.34;80.34;98906.69;4457587;32;34360;-76
2023/04/15 05:38:49;;;;;;;;;;;;;;;10.19;82.03;98913.91;4437987;32;34746;-76
2023/04/15 05:41:17;;;;;;;;;;;;;;;10.27;81.00;98917.63;4445823;32;34806;-75
2023/04/15 05:43:47;;;;;;;;;;;;;;;10.30;80.99;98915.19;4454626;32;33770;-75
2023/04/15 05:46:16;;;;;;;;;;;;;;;10.18;81.79;98919.94;4454397;32;34264;-75
2023/04/15 05:48:44;;;;;;;;;;;;;;;9.89;82.97;98927.63;4454219;32;34654;-75
2023/04/15 05:51:13;;;;;;;;;;;;;;;9.83;83.74;98917.94;4452969;32;34912;-75
2023/04/15 05:53:42;;;;;;;;;;;;;;;9.98;83.00;98922.72;4449897;32;33299;-75
2023/04/15 05:56:11;;;;;;;;;;;;;;;10.11;83.25;98923.16;4424473;32;34287;-75
2023/04/15 05:58:39;;;;;;;;;;;;;;;9.52;85.36;98923.78;4451539;32;34492;-75
2023/04/15 06:01:08;;;;;;;;;;;;;;;9.46;86.06;98920.97;4453315;32;34646;-75
2023/04/15 06:03:37;;;;;;;;;;;;;;;9.23;90.37;98933.97;4453650;32;34509;-76
2023/04/15 06:06:06;;;;;;;;;;;;;;;9.59;87.41;98927.47;4453588;32;34763;-75
2023/04/15 06:08:35;;;;;;;;;;;;;;;9.08;90.30;98938.59;4445625;32;34573;-75
2023/04/15 06:11:04;;;;;;;;;;;;;;;8.78;93.76;98938.31;4459130;32;35148;-75
2023/04/15 06:13:33;;;;;;;;;;;;;;;9.55;90.58;98936.81;4463559;32;33958;-75
2023/04/15 06:16:03;;;;;;;;;;;;;;;10.28;86.67;98939.22;4459541;32;34593;-75
2023/04/15 06:18:32;;;;;;;;;;;;;;;9.71;89.77;98937.34;4466227;32;34717;-75
2023/04/15 06:21:00;;;;;;;;;;;;;;;8.94;94.31;98934.59;4459776;32;35018;-75
2023/04/15 06:23:29;;;;;;;;;;;;;;;9.00;93.93;98935.72;4459711;32;33748;-75
2023/04/15 06:25:58;;;;;;;;;;;;;;;9.20;93.37;98944.19;4462839;32;35941;-75
2023/04/15 06:28:26;;;;;;;;;;;;;;;10.00;89.56;98936.59;4459093;32;35549;-75
2023/04/15 06:30:55;;;;;;;;;;;;;;;10.82;84.11;98931.44;4467513;32;34771;-75
2023/04/15 06:33:23;;;;;;;;;;;;;;;11.17;82.71;98923.81;4458596;32;34373;-76
2023/04/15 06:35:52;;;;;;;;;;;;;;;10.94;82.07;98929.19;4457853;32;34645;-75
2023/04/15 06:38:20;;;;;;;;;;;;;;;11.41;80.46;98940.06;4462189;32;34256;-76
2023/04/15 06:40:49;;;;;;;;;;;;;;;10.55;85.30;98941.84;4463416;32;35747;-75
2023/04/15 06:43:19;;;;;;;;;;;;;;;10.23;87.90;98944.25;4464152;32;34790;-75
2023/04/15 06:45:48;;;;;;;;;;;;;;;9.78;87.37;98949.66;4469247;32;34747;-75
2023/04/15 06:48:16;;;;;;;;;;;;;;;9.99;89.89;98942.63;4468763;32;34760;-75
2023/04/15 06:50:45;;;;;;;;;;;;;;;10.09;88.28;98940.34;4462887;32;34794;-75
2023/04/15 06:53:13;;;;;;;;;;;;;;;10.98;84.36;98932.75;4467620;32;33648;-76
2023/04/15 06:55:43;;;;;;;;;;;;;;;11.00;83.24;98937.12;4465659;32;34811;-75
2023/04/15 06:58:12;;;;;;;;;;;;;;;10.34;81.88;98937.75;4450528;32;35343;-75
2023/04/15 07:00:41;;;;;;;;;;;;;;;9.67;85.65;98940.66;4464845;32;34723;-75
2023/04/15 07:03:11;;;;;;;;;;;;;;;9.50;85.87;98943.50;4467304;32;34696;-76
2023/04/15 07:05:40;;;;;;;;;;;;;;;9.91;84.52;98941.50;4468440;32;33841;-76
2023/04/15 07:08:08;;;;;;;;;;;;;;;10.23;83.97;98950.28;4463296;32;34675;-76
2023/04/15 07:10:37;;;;;;;;;;;;;;;10.54;83.30;98951.28;4465278;32;35473;-74
2023/04/15 07:13:07;;;;;;;;;;;;;;;9.74;82.85;98948.66;4458061;32;33903;-74
2023/04/15 07:15:36;;;;;;;;;;;;;;;9.61;83.27;98951.66;4467685;32;36161;-75
2023/04/15 07:18:05;;;;;;;;;;;;;;;9.49;79.79;98949.53;4467046;32;34599;-75
2023/04/15 07:20:33;;;;;;;;;;;;;;;9.60;81.43;98955.97;4466357;32;34414;-76
2023/04/15 07:23:02;;;;;;;;;;;;;;;9.78;83.04;98960.00;4466313;32;33833;-75
2023/04/15 07:25:31;;;;;;;;;;;;;;;9.63;81.29;98956.03;4459454;32;34259;-76
2023/04/15 07:27:59;;;;;;;;;;;;;;;9.65;80.72;98953.53;4466157;32;34731;-76
2023/04/15 07:30:28;;;;;;;;;;;;;;;9.72;81.17;98959.81;4468181;32;34974;-75
2023/04/15 07:32:57;;;;;;;;;;;;;;;10.35;80.69;98965.41;4469089;32;34027;-75
2023/04/15 07:35:26;;;;;;;;;;;;;;;10.29;78.70;98965.13;4454962;32;35061;-75
2023/04/15 07:37:55;;;;;;;;;;;;;;;9.96;79.17;98955.44;4466776;32;34529;-76
2023/04/15 07:40:23;;;;;;;;;;;;;;;9.93;80.53;98959.63;4467460;32;34456;-76
2023/04/15 07:42:52;;;;;;;;;;;;;;;10.11;78.87;98964.56;4470425;32;33820;-76
2023/04/15 07:45:20;;;;;;;;;;;;;;;10.24;78.53;98961.53;4465762;32;34363;-75
2023/04/15 07:47:52;;;;;;;;;;;;;;;9.97;79.33;98962.38;4469045;32;35504;-75
2023/04/15 07:50:21;;;;;;;;;;;;;;;9.59;81.35;98963.66;4467502;32;33896;-75
2023/04/15 07:52:51;;;;;;;;;;;;;;;9.36;82.22;98965.41;4459920;32;33763;-77
2023/04/15 07:55:21;;;;;;;;;;;;;;;9.71;83.28;98963.19;4455002;32;35527;-74
2023/04/15 07:57:50;;;;;;;;;;;;;;;9.78;81.16;98965.19;4467389;32;35452;-76
2023/04/15 08:00:19;;;;;;;;;;;;;;;10.16;78.87;98968.16;4466679;32;35495;-76
2023/04/15 08:02:48;;;;;;;;;;;;;;;10.33;78.58;98972.19;4439982;32;34670;-75
2023/04/15 08:05:17;;;;;;;;;;;;;;;10.27;79.94;98977.16;4468336;32;34165;-75
2023/04/15 08:07:46;;;;;;;;;;;;;;;9.98;79.96;98974.47;4466792;32;34262;-75
2023/04/15 08:13:02;;;;;;;;;;;;;;;9.60;80.69;98974.06;4449418;32;34326;-75
2023/04/15 08:15:31;;;;;;;;;;;;;;;9.95;82.13;98983.88;4437912;32;34037;-75
2023/04/15 08:18:00;;;;;;;;;;;;;;;10.08;81.42;98975.66;4452905;32;33541;-77
2023/04/15 08:20:29;;;;;;;;;;;;;;;10.32;81.20;98980.81;4451255;32;34963;-75
2023/04/15 08:22:57;;;;;;;;;;;;;;;10.14;83.64;98985.34;4423091;32;33784;-77
2023/04/15 08:25:26;;;;;;;;;;;;;;;10.08;81.58;98985.13;4430691;32;34615;-76
2023/04/15 08:27:56;;;;;;;;;;;;;;;10.59;81.12;98990.31;4451990;32;34642;-76
2023/04/15 08:30:25;;;;;;;;;;;;;;;10.78;77.66;98987.44;4444946;32;33793;-76
2023/04/15 08:32:55;;;;;;;;;;;;;;;11.08;77.14;98981.41;4456584;32;33290;-75
2023/04/15 08:35:23;;;;;;;;;;;;;;;10.92;78.41;98990.47;4447483;32;35296;-75
2023/04/15 08:37:52;;;;;;;;;;;;;;;11.34;76.23;98994.28;4437005;32;34141;-74
2023/04/15 08:40:20;;;;;;;;;;;;;;;11.11;75.97;98991.91;4448973;32;35213;-74
2023/04/15 08:42:49;;;;;;;;;;;;;;;10.60;75.46;98992.03;4434176;32;33741;-74
2023/04/15 08:45:19;;;;;;;;;;;;;;;10.31;76.62;98989.41;4437827;32;35322;-74
2023/04/15 08:47:50;;;;;;;;;;;;;;;10.30;77.88;99000.59;4447039;32;34409;-75
2023/04/15 08:50:19;;;;;;;;;;;;;;;10.26;76.46;98990.94;4435354;32;34342;-75
2023/04/15 08:52:47;;;;;;;;;;;;;;;10.66;77.01;98996.53;4437932;32;33797;-75
2023/04/15 08:55:16;;;;;;;;;;;;;;;10.45;76.80;98996.72;4435228;32;34242;-75
2023/04/15 08:57:44;;;;;;;;;;;;;;;10.52;76.59;98993.53;4438107;32;35378;-75
2023/04/15 09:00:13;;;;;;;;;;;;;;;10.66;76.29;98992.22;4461612;32;35531;-75
2023/04/15 09:02:42;;;;;;;;;;;;;;;11.07;70.62;98990.06;4436434;32;34440;-75
2023/04/15 09:05:11;;;;;;;;;;;;;;;11.57;73.46;98993.22;4439704;32;34218;-75
2023/04/15 09:07:39;;;;;;;;;;;;;;;12.19;71.38;98992.28;4427188;32;928333;-76
2023/04/15 09:10:08;;;;;;;;;;;;;;;12.27;68.85;98982.97;4465301;32;35616;-76
2023/04/15 09:12:37;;;;;;;;;;;;;;;12.45;70.42;98986.84;4454546;32;34020;-77
2023/04/15 09:15:06;;;;;;;;;;;;;;;13.09;67.10;98990.03;4468988;32;35489;-76
2023/04/15 09:17:35;;;;;;;;;;;;;;;12.97;67.09;98986.31;4454435;32;34568;-76
2023/04/15 09:20:08;;;;;;;;;;;;;;;12.22;68.89;98994.94;4465573;32;35107;-76
2023/04/15 09:22:36;;;;;;;;;;;;;;;11.34;75.40;98996.88;4466896;32;34676;-75
2023/04/15 09:25:29;;;;;;;;;;;;;;;11.36;77.25;98996.06;4456290;32;34749;-75
2023/04/15 09:28:02;;;;;;;;;;;;;;;11.18;72.43;98988.66;4467481;32;35086;-75
2023/04/15 09:30:31;;;;;;;;;;;;;;;11.75;71.25;98986.78;4465480;32;34846;-76
2023/04/15 09:33:07;;;;;;;;;;;;;;;12.07;71.33;98990.25;4466762;32;33954;-76
2023/04/15 09:35:36;;;;;;;;;;;;;;;11.44;72.10;98998.88;4448206;32;34651;-75
2023/04/15 09:38:08;;;;;;;;;;;;;;;11.49;73.45;98999.00;4467342;32;34676;-75
2023/04/15 09:40:40;;;;;;;;;;;;;;;10.95;74.61;99006.12;4470042;32;34736;-75
2023/04/15 09:43:11;;;;;;;;;;;;;;;10.99;77.31;99004.47;4456930;32;34387;-75
2023/04/15 09:45:46;;;;;;;;;;;;;;;10.78;76.39;99007.31;4458449;32;34048;-75
2023/04/15 09:48:14;;;;;;;;;;;;;;;10.61;76.45;99009.34;4457281;32;34638;-77
2023/04/15 09:50:43;;;;;;;;;;;;;;;10.24;76.04;99008.13;4469406;32;34746;-76
2023/04/15 09:53:15;;;;;;;;;;;;;;;10.46;78.05;99019.22;4457655;32;34609;-75
2023/04/15 09:55:45;;;;;;;;;;;;;;;10.62;81.30;99019.78;4463600;32;35084;-75
2023/04/15 09:58:20;;;;;;;;;;;;;;;10.99;81.47;99022.59;4463575;32;34596;-75
2023/04/15 10:00:50;;;;;;;;;;;;;;;10.90;82.59;99032.72;4463089;32;34982;-75
2023/04/15 10:03:18;;;;;;;;;;;;;;;11.28;81.88;99025.19;4463735;32;34748;-76
2023/04/15 10:05:48;;;;;;;;;;;;;;;11.08;81.31;99035.84;4468385;32;34695;-76
2023/04/15 10:08:18;;;;;;;;;;;;;;;11.23;78.12;99037.16;4456064;32;34555;-77
2023/04/15 10:10:47;;;;;;;;;;;;;;;11.28;77.05;99025.19;4455489;32;35466;-77
2023/04/15 10:13:21;;;;;;;;;;;;;;;11.09;76.49;99035.03;4458626;32;35278;-77
2023/04/15 10:15:51;;;;;;;;;;;;;;;11.27;77.54;99023.44;4453738;32;34788;-77
2023/04/15 10:18:20;;;;;;;;;;;;;;;10.85;76.53;99035.13;4442375;32;35475;-77
2023/04/15 10:20:49;;;;;;;;;;;;;;;11.05;77.45;99029.69;4448943;32;35445;-76
2023/04/15 10:23:19;;;;;;;;;;;;;;;10.96;76.30;99032.91;4447575;32;33947;-76
2023/04/15 10:25:51;;;;;;;;;;;;;;;10.98;78.18;99032.09;4448533;32;35337;-76
2023/04/15 10:28:21;;;;;;;;;;;;;;;10.28;80.69;99032.41;4449871;32;34680;-77
2023/04/15 10:30:50;;;;;;;;;;;;;;;10.13;83.71;99040.53;4463414;32;33402;-77
2023/04/15 10:33:20;;;;;;;;;;;;;;;9.98;83.56;99035.69;4452326;32;34148;-76
2023/04/15 10:35:50;;;;;;;;;;;;;;;10.00;84.58;99040.09;4442145;32;34674;-76
2023/04/15 10:38:31;;;;;;;;;;;;;;;10.05;85.26;99042.84;4454179;32;34364;-76
2023/04/15 10:41:15;;;;;;;;;;;;;;;9.98;84.02;99046.91;4453394;32;34725;-77
2023/04/15 10:43:48;;;;;;;;;;;;;;;9.95;82.97;99036.47;4443589;32;34022;-76
2023/04/15 10:46:19;;;;;;;;;;;;;;;9.81;83.39;99048.03;4454084;32;35376;-76
2023/04/15 10:48:51;;;;;;;;;;;;;;;10.12;85.28;99043.94;4453920;32;34657;-76
2023/04/15 10:51:29;;;;;;;;;;;;;;;10.01;83.97;99047.03;4453960;32;35645;-76
2023/04/15 10:53:58;;;;;;;;;;;;;;;10.14;83.57;99052.62;4454019;32;34214;-76
2023/04/15 10:56:27;;;;;;;;;;;;;;;10.21;84.13;99054.59;4446543;32;34564;-76
2023/04/15 10:58:57;;;;;;;;;;;;;;;10.22;84.28;99057.25;4447891;32;35520;-76
2023/04/15 11:01:46;;;;;;;;;;;;;;;10.03;84.97;99054.84;4454010;32;33724;-77
2023/04/15 11:04:35;;;;;;;;;;;;;;;10.15;86.86;99054.41;4443717;32;34610;-76
2023/04/15 11:07:04;;;;;;;;;;;;;;;10.12;86.97;99057.78;4442696;32;35389;-76
2023/04/15 11:09:33;;;;;;;;;;;;;;;10.09;88.82;99051.59;4471076;32;34167;-77
2023/04/15 11:12:05;;;;;;;;;;;;;;;9.87;87.67;99053.44;4476000;32;35438;-76
2023/04/15 11:14:35;;;;;;;;;;;;;;;10.16;89.31;99057.03;4475491;32;34369;-76
2023/04/15 11:17:04;;;;;;;;;;;;;;;10.35;87.06;99053.41;4468399;32;33590;-77
2023/04/15 11:19:39;;;;;;;;;;;;;;;10.29;86.09;99047.97;4458956;32;34165;-76
2023/04/15 11:22:08;;;;;;;;;;;;;;;10.06;83.91;99048.91;4477852;32;34811;-76
2023/04/15 11:24:46;;;;;;;;;;;;;;;10.31;88.15;99051.53;4479505;32;33818;-76
2023/04/15 11:27:24;;;;;;;;;;;;;;;10.16;86.06;99046.69;4458176;32;35453;-76
2023/04/15 11:29:52;;;;;;;;;;;;;;;10.41;88.97;99058.78;4479773;32;35516;-76
2023/04/15 11:32:21;;;;;;;;;;;;;;;10.33;85.59;99049.88;4477908;32;35447;-76
2023/04/15 11:34:50;;;;;;;;;;;;;;;10.24;84.82;99052.12;4473486;32;34680;-76
2023/04/15 11:37:26;;;;;;;;;;;;;;;10.12;86.40;99054.28;4468398;32;34703;-76
2023/04/15 11:39:55;;;;;;;;;;;;;;;10.21;87.76;99057.19;4475079;32;34612;-76
2023/04/15 11:42:23;;;;;;;;;;;;;;;9.97;84.93;99050.34;4461944;32;35376;-76
2023/04/15 11:45:05;;;;;;;;;;;;;;;10.10;85.00;99051.66;4481427;32;34054;-76
2023/04/15 11:47:35;;;;;;;;;;;;;;;10.08;84.30;99049.84;4460538;32;35204;-77
2023/04/15 11:50:24;;;;;;;;;;;;;;;10.18;83.94;99060.56;4478371;32;35233;-76
2023/04/15 11:52:55;;;;;;;;;;;;;;;10.25;85.17;99056.47;4467040;32;34174;-76
2023/04/15 11:55:23;;;;;;;;;;;;;;;10.33;83.18;99059.34;4469578;32;33237;-77
2023/04/15 11:58:04;;;;;;;;;;;;;;;10.49;81.31;99055.56;4460251;32;34092;-76
2023/04/15 12:00:32;;;;;;;;;;;;;;;10.21;81.03;99052.00;4474987;32;34835;-76
2023/04/15 12:03:21;;;;;;;;;;;;;;;10.31;80.63;99059.28;4454428;32;34910;-76
2023/04/15 12:06:07;;;;;;;;;;;;;;;10.47;80.18;99057.22;4466879;32;34267;-77
2023/04/15 12:08:47;;;;;;;;;;;;;;;10.54;79.57;99069.53;4477879;32;34354;-76
2023/04/15 12:11:14;;;;;;;;;;;;;;;10.77;80.58;99065.97;4467822;32;33842;-76
2023/04/15 12:13:48;;;;;;;;;;;;;;;10.68;81.30;99068.31;4472178;32;33889;-76
2023/04/15 12:16:16;;;;;;;;;;;;;;;10.90;80.26;99066.41;4468014;32;32780;-75
2023/04/15 12:18:45;;;;;;;;;;;;;;;10.61;80.85;99074.09;4459283;32;33260;-76
2023/04/15 12:21:12;;;;;;;;;;;;;;;10.57;82.91;99069.66;4452093;32;33731;-76
2023/04/15 12:23:46;;;;;;;;;;;;;;;11.06;82.01;99071.22;4474777;32;33842;-75
2023/04/15 12:26:14;;;;;;;;;;;;;;;10.73;79.92;99071.91;4481724;32;34094;-76
2023/04/15 12:28:41;;;;;;;;;;;;;;;10.87;77.73;99068.88;4475080;32;33816;-76
2023/04/15 12:31:09;;;;;;;;;;;;;;;10.74;80.16;99065.91;4469561;32;34137;-77
2023/04/15 12:33:37;;;;;;;;;;;;;;;11.06;80.90;99068.63;4467070;32;33655;-76
2023/04/15 12:36:05;;;;;;;;;;;;;;;11.52;76.25;99064.81;4469933;32;34320;-76
2023/04/15 12:38:32;;;;;;;;;;;;;;;11.36;78.39;99070.41;4474408;32;34269;-75
2023/04/15 12:41:00;;;;;;;;;;;;;;;11.23;78.66;99063.97;4467538;32;34995;-76
2023/04/15 12:43:27;;;;;;;;;;;;;;;11.10;75.98;99059.22;4481875;32;33944;-76
2023/04/15 12:45:54;;;;;;;;;;;;;;;11.49;77.13;99062.16;4469134;32;33350;-76
2023/04/15 12:48:21;;;;;;;;;;;;;;;11.18;76.03;99070.69;4477235;32;33777;-77
2023/04/15 12:50:49;;;;;;;;;;;;;;;11.61;75.83;99072.88;4472794;32;34964;-77
2023/04/15 12:53:16;;;;;;;;;;;;;;;11.19;76.32;99073.34;4471355;32;34237;-77
2023/04/15 12:55:43;;;;;;;;;;;;;;;11.04;78.29;99072.88;4478328;32;33860;-76
2023/04/15 12:58:11;;;;;;;;;;;;;;;11.08;79.26;99082.50;4472089;32;34489;-76
2023/04/15 13:00:38;;;;;;;;;;;;;;;11.02;79.06;99074.53;4463891;32;33885;-76
2023/04/15 13:03:07;;;;;;;;;;;;;;;10.90;78.57;99077.63;4470869;32;34123;-77
2023/04/15 13:05:35;;;;;;;;;;;;;;;11.25;77.56;99077.84;4477953;32;33355;-76
2023/04/15 13:08:03;;;;;;;;;;;;;;;11.60;75.82;99073.69;4477657;32;34940;-76